createdAt,value
2023-04-28T00:00:04.833Z,6.90
2023-04-28T00:02:31.582Z,6.91
2023-04-28T00:04:58.418Z,6.87
2023-04-28T00:07:25.377Z,6.83
2023-04-28T00:09:51.996Z,6.77
2023-04-28T00:12:18.634Z,6.67
2023-04-28T00:14:45.468Z,6.69
2023-04-28T00:17:12.053Z,6.65
2023-04-28T00:19:38.880Z,6.62
2023-04-28T00:22:06.334Z,6.58
2023-04-28T00:24:33.893Z,6.55
2023-04-28T00:27:01.429Z,6.48
2023-04-28T00:29:28.916Z,6.38
2023-04-28T00:31:55.379Z,6.40
2023-04-28T00:34:21.957Z,6.29
2023-04-28T00:36:48.580Z,6.36
2023-04-28T00:39:18.436Z,6.38
2023-04-28T00:41:45.054Z,6.19
2023-04-28T00:44:11.776Z,6.39
2023-04-28T00:46:38.659Z,6.29
2023-04-28T00:49:05.995Z,6.26
2023-04-28T00:51:33.937Z,6.29
2023-04-28T00:54:01.047Z,6.25
2023-04-28T00:56:31.151Z,6.12
2023-04-28T00:58:58.353Z,6.12
2023-04-28T01:01:25.548Z,6.02
2023-04-28T01:03:52.596Z,6.02
2023-04-28T01:06:20.501Z,5.98
2023-04-28T01:08:53.391Z,6.00
2023-04-28T01:11:20.065Z,6.05
2023-04-28T01:13:46.662Z,5.99
2023-04-28T01:16:13.383Z,5.94
2023-04-28T01:18:46.932Z,6.00
2023-04-28T01:21:13.572Z,5.99
2023-04-28T01:23:40.207Z,6.05
2023-04-28T01:26:06.836Z,6.03
2023-04-28T01:28:33.424Z,6.05
2023-04-28T01:31:00.211Z,6.10
2023-04-28T01:33:26.813Z,6.11
2023-04-28T01:35:57.925Z,6.11
2023-04-28T01:38:24.546Z,6.14
2023-04-28T01:40:51.136Z,6.11
2023-04-28T01:43:17.756Z,6.08
2023-04-28T01:45:44.528Z,6.13
2023-04-28T01:48:11.376Z,6.20
2023-04-28T01:50:38.027Z,6.15
2023-04-28T01:53:04.625Z,6.14
2023-04-28T01:55:31.256Z,6.16
2023-04-28T01:57:58.508Z,6.20
2023-04-28T02:00:25.786Z,6.17
2023-04-28T02:02:52.783Z,6.16
2023-04-28T02:05:19.492Z,6.15
2023-04-28T02:07:46.415Z,6.12
2023-04-28T02:10:13.256Z,6.07
2023-04-28T02:12:41.689Z,6.12
2023-04-28T02:15:09.222Z,6.06
2023-04-28T02:17:35.872Z,5.99
2023-04-28T02:20:02.500Z,6.12
2023-04-28T02:22:29.118Z,6.13
2023-04-28T02:24:55.744Z,6.11
2023-04-28T02:27:22.500Z,6.10
2023-04-28T02:29:49.466Z,6.08
2023-04-28T02:32:16.087Z,6.06
2023-04-28T02:34:42.702Z,6.01
2023-04-28T02:37:09.408Z,5.97
2023-04-28T02:39:36.087Z,5.96
2023-04-28T02:42:05.497Z,5.96
2023-04-28T02:44:32.109Z,5.98
2023-04-28T02:46:58.865Z,5.94
2023-04-28T02:49:25.519Z,5.92
2023-04-28T02:51:52.082Z,5.92
2023-04-28T02:54:27.509Z,5.83
2023-04-28T02:56:57.945Z,5.84
2023-04-28T02:59:25.203Z,5.88
2023-04-28T03:01:54.380Z,5.86
2023-04-28T03:04:21.453Z,5.82
2023-04-28T03:06:48.296Z,5.86
2023-04-28T03:09:15.638Z,5.82
2023-04-28T03:11:42.267Z,5.84
2023-04-28T03:14:08.869Z,5.77
2023-04-28T03:16:35.784Z,5.75
2023-04-28T03:19:02.531Z,5.66
2023-04-28T03:21:29.118Z,5.65
2023-04-28T03:23:55.747Z,5.68
2023-04-28T03:26:22.387Z,5.63
2023-04-28T03:28:49.222Z,5.62
2023-04-28T03:31:15.964Z,5.58
2023-04-28T03:33:45.478Z,5.57
2023-04-28T03:36:12.069Z,5.65
2023-04-28T03:38:38.965Z,5.56
2023-04-28T03:41:05.775Z,5.51
2023-04-28T03:43:33.475Z,5.55
2023-04-28T03:46:00.192Z,5.59
2023-04-28T03:48:27.056Z,5.62
2023-04-28T03:50:53.760Z,5.64
2023-04-28T03:53:20.857Z,5.67
2023-04-28T03:55:47.564Z,5.57
2023-04-28T03:58:14.220Z,5.66
2023-04-28T04:00:40.886Z,5.63
2023-04-28T04:03:08.315Z,5.63
2023-04-28T04:05:35.209Z,5.69
2023-04-28T04:08:03.189Z,5.62
2023-04-28T04:10:29.803Z,5.57
2023-04-28T04:12:56.425Z,5.51
2023-04-28T04:15:23.120Z,5.52
2023-04-28T04:17:49.798Z,5.62
2023-04-28T04:20:16.450Z,5.61
2023-04-28T04:22:43.050Z,5.70
2023-04-28T04:25:09.713Z,5.69
2023-04-28T04:27:36.332Z,5.69
2023-04-28T04:30:03.040Z,5.70
2023-04-28T04:32:29.662Z,5.78
2023-04-28T04:34:57.324Z,5.81
2023-04-28T04:37:23.998Z,5.85
2023-04-28T04:39:50.584Z,5.90
2023-04-28T04:42:23.973Z,5.98
2023-04-28T04:44:52.271Z,6.06
2023-04-28T04:47:19.228Z,6.15
2023-04-28T04:49:45.874Z,6.15
2023-04-28T04:52:12.521Z,6.25
2023-04-28T04:54:39.181Z,6.39
2023-04-28T04:57:06.810Z,6.43
2023-04-28T04:59:33.606Z,6.56
2023-04-28T05:02:00.254Z,6.66
2023-04-28T05:04:26.950Z,6.68
2023-04-28T05:06:53.799Z,6.62
2023-04-28T05:09:20.362Z,6.76
2023-04-28T05:11:47.044Z,6.78
2023-04-28T05:14:13.824Z,6.92
2023-04-28T05:16:42.098Z,6.98
2023-04-28T05:19:08.823Z,7.18
2023-04-28T05:21:35.922Z,7.29
2023-04-28T05:24:02.495Z,7.39
2023-04-28T05:26:29.138Z,7.44
2023-04-28T05:28:55.785Z,7.51
2023-04-28T05:31:22.377Z,7.60
2023-04-28T05:33:48.980Z,7.70
2023-04-28T05:36:17.125Z,7.86
2023-04-28T05:38:44.242Z,8.02
2023-04-28T05:41:10.865Z,8.19
2023-04-28T05:43:37.463Z,8.46
2023-04-28T05:46:07.860Z,8.67
2023-04-28T05:48:38.886Z,9.31
2023-04-28T05:51:05.533Z,10.02
2023-04-28T05:53:32.129Z,11.07
2023-04-28T05:55:58.749Z,11.88
2023-04-28T05:58:25.359Z,12.69
2023-04-28T06:00:51.967Z,12.72
2023-04-28T06:03:19.364Z,12.78
2023-04-28T06:05:46.377Z,13.17
2023-04-28T06:08:13.066Z,13.43
2023-04-28T06:10:39.747Z,13.28
2023-04-28T06:13:06.613Z,13.92
2023-04-28T06:15:33.960Z,13.77
2023-04-28T06:18:00.756Z,14.42
2023-04-28T06:20:27.496Z,14.29
2023-04-28T06:22:54.225Z,14.45
2023-04-28T06:25:20.812Z,14.82
2023-04-28T06:27:47.567Z,14.53
2023-04-28T06:30:23.306Z,14.84
2023-04-28T06:32:50.032Z,14.85
2023-04-28T06:35:16.847Z,14.82
2023-04-28T06:37:43.680Z,14.84
2023-04-28T06:40:11.141Z,14.97
2023-04-28T06:42:37.838Z,14.72
2023-04-28T06:45:04.768Z,14.94
2023-04-28T06:47:31.394Z,14.62
2023-04-28T06:49:58.038Z,15.28
2023-04-28T06:52:33.146Z,15.54
2023-04-28T06:55:09.775Z,15.69
2023-04-28T06:57:38.412Z,15.59
2023-04-28T07:00:06.035Z,15.67
2023-04-28T07:02:32.825Z,15.26
2023-04-28T07:04:59.778Z,15.31
2023-04-28T07:07:26.624Z,15.44
2023-04-28T07:09:53.616Z,15.51
2023-04-28T07:12:21.474Z,15.35
2023-04-28T07:14:48.569Z,15.12
2023-04-28T07:17:15.146Z,15.03
2023-04-28T07:19:41.691Z,15.66
2023-04-28T07:22:08.333Z,15.62
2023-04-28T07:24:34.936Z,15.76
2023-04-28T07:27:01.970Z,15.94
2023-04-28T07:29:34.003Z,16.16
2023-04-28T07:32:01.678Z,16.43
2023-04-28T07:34:28.458Z,16.81
2023-04-28T07:36:55.219Z,16.67
2023-04-28T07:39:21.901Z,17.04
2023-04-28T07:41:48.536Z,16.54
2023-04-28T07:44:15.299Z,17.12
2023-04-28T07:46:42.110Z,17.27
2023-04-28T07:49:09.843Z,17.65
2023-04-28T07:51:36.578Z,16.74
2023-04-28T07:54:03.289Z,17.20
2023-04-28T07:56:30.297Z,16.82
2023-04-28T07:58:57.114Z,16.76
2023-04-28T08:01:23.789Z,16.91
2023-04-28T08:03:50.536Z,17.14
2023-04-28T08:06:17.408Z,16.44
2023-04-28T08:08:44.080Z,16.47
2023-04-28T08:11:10.721Z,16.22
2023-04-28T08:13:37.469Z,16.34
2023-04-28T08:16:04.405Z,16.41
2023-04-28T08:18:31.739Z,16.23
2023-04-28T08:20:58.251Z,16.20
2023-04-28T08:23:28.358Z,16.38
2023-04-28T08:25:55.343Z,16.23
2023-04-28T08:28:21.949Z,15.95
2023-04-28T08:30:48.810Z,16.27
2023-04-28T08:33:15.630Z,16.09
2023-04-28T08:35:42.365Z,15.86
2023-04-28T08:38:13.941Z,16.13
2023-04-28T08:40:42.872Z,16.08
2023-04-28T08:43:14.004Z,16.00
2023-04-28T08:45:45.841Z,16.24
2023-04-28T08:48:21.651Z,16.37
2023-04-28T08:50:54.701Z,16.33
2023-04-28T08:53:26.098Z,16.41
2023-04-28T08:55:56.541Z,16.34
2023-04-28T08:58:27.542Z,16.46
2023-04-28T09:00:54.717Z,16.27
2023-04-28T09:03:21.941Z,16.19
2023-04-28T09:05:49.256Z,16.26
2023-04-28T09:08:16.112Z,16.45
2023-04-28T09:10:42.859Z,16.81
2023-04-28T09:13:09.775Z,17.04
2023-04-28T09:15:40.949Z,17.24
2023-04-28T09:18:08.779Z,17.17
2023-04-28T09:20:36.570Z,17.19
2023-04-28T09:23:20.213Z,17.05
2023-04-28T09:26:09.200Z,17.07
2023-04-28T09:28:36.583Z,17.14
2023-04-28T09:31:03.144Z,17.02
2023-04-28T09:33:30.043Z,17.19
2023-04-28T09:35:56.825Z,17.27
2023-04-28T09:38:23.793Z,17.37
2023-04-28T09:41:03.083Z,17.36
2023-04-28T09:43:32.311Z,17.21
2023-04-28T09:46:01.914Z,17.54
2023-04-28T09:48:34.746Z,17.81
2023-04-28T09:51:04.071Z,17.79
2023-04-28T09:53:30.990Z,17.96
2023-04-28T09:55:59.160Z,17.89
2023-04-28T09:58:27.458Z,17.85
2023-04-28T10:00:59.318Z,17.88
2023-04-28T10:03:29.541Z,18.00
2023-04-28T10:05:58.358Z,17.89
2023-04-28T10:08:27.270Z,18.00
2023-04-28T10:10:54.861Z,18.07
2023-04-28T10:13:22.208Z,18.20
2023-04-28T10:15:55.443Z,18.21
2023-04-28T10:18:25.893Z,18.27
2023-04-28T10:21:01.094Z,18.26
2023-04-28T10:23:31.425Z,18.43
2023-04-28T10:26:00.009Z,18.39
2023-04-28T10:28:29.989Z,18.47
2023-04-28T10:31:13.163Z,18.58
2023-04-28T10:33:41.045Z,18.32
2023-04-28T10:36:08.278Z,18.40
2023-04-28T10:38:36.319Z,18.53
2023-04-28T10:41:03.480Z,18.36
2023-04-28T10:43:32.974Z,18.51
2023-04-28T10:46:01.374Z,18.38
2023-04-28T10:48:34.738Z,18.56
2023-04-28T10:51:04.465Z,18.69
2023-04-28T10:53:47.104Z,18.79
2023-04-28T10:56:27.011Z,18.53
2023-04-28T10:58:55.122Z,18.43
2023-04-28T11:01:22.100Z,18.32
2023-04-28T11:04:00.753Z,18.49
2023-04-28T11:06:29.633Z,18.61
2023-04-28T11:09:00.949Z,18.73
2023-04-28T11:11:29.429Z,18.40
2023-04-28T11:14:20.581Z,18.20
2023-04-28T11:16:54.447Z,18.29
2023-04-28T11:19:25.568Z,18.14
2023-04-28T11:21:55.056Z,18.39
2023-04-28T11:24:22.405Z,18.57
2023-04-28T11:26:48.971Z,18.58
2023-04-28T11:29:15.737Z,18.58
2023-04-28T11:31:51.423Z,18.66
2023-04-28T11:34:22.665Z,18.70
2023-04-28T11:36:49.525Z,18.78
2023-04-28T11:39:16.296Z,18.48
2023-04-28T11:41:45.429Z,18.53
2023-04-28T11:44:16.393Z,18.66
2023-04-28T11:47:01.288Z,18.91
2023-04-28T11:49:30.852Z,19.02
2023-04-28T11:52:00.330Z,19.04
2023-04-28T11:54:29.161Z,19.08
2023-04-28T11:56:57.573Z,19.03
2023-04-28T11:59:29.362Z,18.86
2023-04-28T12:02:01.001Z,19.08
2023-04-28T12:04:36.478Z,19.05
2023-04-28T12:07:10.188Z,18.93
2023-04-28T12:09:38.561Z,18.90
2023-04-28T12:12:07.391Z,18.63
2023-04-28T12:14:57.849Z,18.74
2023-04-28T12:17:29.147Z,18.91
2023-04-28T12:19:57.456Z,18.90
2023-04-28T12:22:25.072Z,18.89
2023-04-28T12:25:12.529Z,18.79
2023-04-28T12:27:40.765Z,18.87
2023-04-28T12:30:26.489Z,19.00
2023-04-28T12:32:53.998Z,19.02
2023-04-28T12:35:22.481Z,18.92
2023-04-28T12:37:49.145Z,19.11
2023-04-28T12:40:15.807Z,19.09
2023-04-28T12:42:42.473Z,19.03
2023-04-28T12:45:09.721Z,19.08
2023-04-28T12:47:37.953Z,19.02
2023-04-28T12:50:05.783Z,19.06
2023-04-28T12:52:37.507Z,19.14
2023-04-28T12:55:04.763Z,19.07
2023-04-28T12:57:31.555Z,19.18
2023-04-28T12:59:58.281Z,19.26
2023-04-28T13:02:25.296Z,19.30
2023-04-28T13:04:53.181Z,19.30
2023-04-28T13:07:20.185Z,19.27
2023-04-28T13:09:47.799Z,19.31
2023-04-28T13:12:15.647Z,19.36
2023-04-28T13:14:42.397Z,19.33
2023-04-28T13:17:10.201Z,19.40
2023-04-28T13:19:37.514Z,19.46
2023-04-28T13:22:06.050Z,19.46
2023-04-28T13:24:36.235Z,19.25
2023-04-28T13:27:03.977Z,19.27
2023-04-28T13:29:30.642Z,19.53
2023-04-28T13:31:57.458Z,19.43
2023-04-28T13:34:24.096Z,19.27
2023-04-28T13:36:54.025Z,19.17
2023-04-28T13:39:22.166Z,19.22
2023-04-28T13:41:49.511Z,19.28
2023-04-28T13:44:16.796Z,19.21
2023-04-28T13:46:43.617Z,19.17
2023-04-28T13:49:10.908Z,19.28
2023-04-28T13:51:37.858Z,19.28
2023-04-28T13:54:05.462Z,19.22
2023-04-28T13:56:32.342Z,19.34
2023-04-28T13:58:59.074Z,19.18
2023-04-28T14:01:26.061Z,19.26
2023-04-28T14:03:52.768Z,19.48
2023-04-28T14:06:19.923Z,19.53
2023-04-28T14:08:46.824Z,19.31
2023-04-28T14:11:13.746Z,19.44
2023-04-28T14:13:41.059Z,19.44
2023-04-28T14:16:07.794Z,19.59
2023-04-28T14:18:34.522Z,19.57
2023-04-28T14:21:02.381Z,19.42
2023-04-28T14:23:29.821Z,19.68
2023-04-28T14:25:58.131Z,19.66
2023-04-28T14:28:24.918Z,19.73
2023-04-28T14:30:54.262Z,19.49
2023-04-28T14:33:20.999Z,19.58
2023-04-28T14:35:48.091Z,19.46
2023-04-28T14:38:14.776Z,19.44
2023-04-28T14:40:43.082Z,19.55
2023-04-28T14:43:09.800Z,19.55
2023-04-28T14:45:38.186Z,19.61
2023-04-28T14:48:06.963Z,19.58
2023-04-28T14:50:33.888Z,19.56
2023-04-28T14:53:05.408Z,19.56
2023-04-28T14:55:32.805Z,19.51
2023-04-28T14:57:59.461Z,19.50
2023-04-28T15:00:26.076Z,19.53
2023-04-28T15:02:53.363Z,19.47
2023-04-28T15:05:19.980Z,19.41
2023-04-28T15:07:46.693Z,19.36
2023-04-28T15:10:13.296Z,19.48
2023-04-28T15:12:40.147Z,19.48
2023-04-28T15:15:07.803Z,19.44
2023-04-28T15:17:34.851Z,19.44
2023-04-28T15:20:01.587Z,19.49
2023-04-28T15:22:28.154Z,19.57
2023-04-28T15:24:55.920Z,19.58
2023-04-28T15:27:23.253Z,19.50
2023-04-28T15:29:50.785Z,19.60
2023-04-28T15:32:17.597Z,19.64
2023-04-28T15:34:44.272Z,19.50
2023-04-28T15:37:42.580Z,19.38
2023-04-28T15:40:12.430Z,19.44
2023-04-28T15:42:42.031Z,19.46
2023-04-28T15:45:13.421Z,19.45
2023-04-28T15:47:40.674Z,19.25
2023-04-28T15:50:09.193Z,19.27
2023-04-28T15:52:38.542Z,19.14
2023-04-28T15:55:05.619Z,19.03
2023-04-28T15:57:32.212Z,18.96
2023-04-28T15:59:58.806Z,18.94
2023-04-28T16:02:25.579Z,18.79
2023-04-28T16:04:52.788Z,18.71
2023-04-28T16:07:19.626Z,18.65
2023-04-28T16:09:46.647Z,18.53
2023-04-28T16:12:13.238Z,18.39
2023-04-28T16:14:39.831Z,18.29
2023-04-28T16:17:06.453Z,18.20
2023-04-28T16:19:33.619Z,18.20
2023-04-28T16:22:01.513Z,18.15
2023-04-28T16:24:28.777Z,17.97
2023-04-28T16:26:55.992Z,18.03
2023-04-28T16:29:23.671Z,18.01
2023-04-28T16:31:50.597Z,18.06
2023-04-28T16:34:19.278Z,17.90
2023-04-28T16:36:45.985Z,17.83
2023-04-28T16:39:13.265Z,17.79
2023-04-28T16:41:39.891Z,17.75
2023-04-28T16:44:06.567Z,17.55
2023-04-28T16:46:33.456Z,17.56
2023-04-28T16:49:00.483Z,17.52
2023-04-28T16:51:28.336Z,17.42
2023-04-28T16:53:54.921Z,17.33
2023-04-28T16:56:21.873Z,17.31
2023-04-28T16:58:48.486Z,17.20
2023-04-28T17:01:15.263Z,17.08
2023-04-28T17:03:42.325Z,17.01
2023-04-28T17:06:09.344Z,16.90
2023-04-28T17:08:35.980Z,16.86
2023-04-28T17:11:04.695Z,16.78
2023-04-28T17:13:32.918Z,16.71
2023-04-28T17:16:00.412Z,16.52
2023-04-28T17:18:27.215Z,16.46
2023-04-28T17:20:54.380Z,16.52
2023-04-28T17:23:21.040Z,16.44
2023-04-28T17:25:47.644Z,16.26
2023-04-28T17:28:14.314Z,16.12
2023-04-28T17:30:43.824Z,16.04
2023-04-28T17:33:13.628Z,15.89
2023-04-28T17:35:40.372Z,15.76
2023-04-28T17:38:07.040Z,15.64
2023-04-28T17:40:33.672Z,15.53
2023-04-28T17:43:00.409Z,15.46
2023-04-28T17:45:27.066Z,15.21
2023-04-28T17:47:53.771Z,15.11
2023-04-28T17:50:20.540Z,14.97
2023-04-28T17:52:47.115Z,14.86
2023-04-28T17:55:14.299Z,14.75
2023-04-28T17:57:41.231Z,14.83
2023-04-28T18:00:08.460Z,14.69
2023-04-28T18:02:35.279Z,14.66
2023-04-28T18:05:02.181Z,14.57
2023-04-28T18:07:29.080Z,14.55
2023-04-28T18:09:57.337Z,14.39
2023-04-28T18:12:26.054Z,14.34
2023-04-28T18:14:54.051Z,14.28
2023-04-28T18:17:21.143Z,14.25
2023-04-28T18:19:51.339Z,14.18
2023-04-28T18:22:18.629Z,14.08
2023-04-28T18:24:45.244Z,13.97
2023-04-28T18:27:11.986Z,13.88
2023-04-28T18:29:38.701Z,13.81
2023-04-28T18:32:05.526Z,13.60
2023-04-28T18:34:32.146Z,13.68
2023-04-28T18:36:58.754Z,13.65
2023-04-28T18:39:25.984Z,13.54
2023-04-28T18:41:52.717Z,13.44
2023-04-28T18:44:19.282Z,13.34
2023-04-28T18:46:45.957Z,13.21
2023-04-28T18:49:13.001Z,13.07
2023-04-28T18:51:39.644Z,12.99
2023-04-28T18:54:06.888Z,12.95
2023-04-28T18:56:33.424Z,12.80
2023-04-28T18:59:00.013Z,12.61
2023-04-28T19:01:27.428Z,12.41
2023-04-28T19:03:54.551Z,12.23
2023-04-28T19:06:22.295Z,12.05
2023-04-28T19:08:48.782Z,11.98
2023-04-28T19:11:15.740Z,11.87
2023-04-28T19:13:44.695Z,11.78
2023-04-28T19:16:11.375Z,11.78
2023-04-28T19:18:39.640Z,11.53
2023-04-28T19:21:06.244Z,11.63
2023-04-28T19:23:32.895Z,11.55
2023-04-28T19:26:00.066Z,11.60
2023-04-28T19:28:26.845Z,11.59
2023-04-28T19:30:54.692Z,11.53
2023-04-28T19:33:27.805Z,11.43
2023-04-28T19:35:55.046Z,11.23
2023-04-28T19:38:25.581Z,10.97
2023-04-28T19:41:01.326Z,10.93
2023-04-28T19:43:27.964Z,10.84
2023-04-28T19:45:54.711Z,10.51
2023-04-28T19:48:21.421Z,10.30
2023-04-28T19:50:48.011Z,10.34
2023-04-28T19:53:15.037Z,10.30
2023-04-28T19:55:41.598Z,10.34
2023-04-28T19:58:10.140Z,10.39
2023-04-28T20:00:37.001Z,10.39
2023-04-28T20:03:04.088Z,10.47
2023-04-28T20:05:31.402Z,10.45
2023-04-28T20:07:58.056Z,10.40
2023-04-28T20:10:24.878Z,10.41
2023-04-28T20:12:51.734Z,10.57
2023-04-28T20:15:18.725Z,10.56
2023-04-28T20:17:46.219Z,10.59
2023-04-28T20:20:13.505Z,10.51
2023-04-28T20:22:43.207Z,10.42
2023-04-28T20:25:10.928Z,10.02
2023-04-28T20:27:37.696Z,10.00
2023-04-28T20:30:04.980Z,9.82
2023-04-28T20:32:31.828Z,9.67
2023-04-28T20:34:58.581Z,9.45
2023-04-28T20:37:26.669Z,9.28
2023-04-28T20:39:53.620Z,9.23
2023-04-28T20:42:20.324Z,9.13
2023-04-28T20:44:46.928Z,9.17
2023-04-28T20:47:14.017Z,9.08
2023-04-28T20:49:40.680Z,9.00
2023-04-28T20:52:07.332Z,9.04
2023-04-28T20:54:36.085Z,9.08
2023-04-28T20:57:04.807Z,9.19
2023-04-28T20:59:32.931Z,9.16
2023-04-28T21:01:59.905Z,9.03
2023-04-28T21:04:26.734Z,9.07
2023-04-28T21:06:56.588Z,9.06
2023-04-28T21:09:26.656Z,8.99
2023-04-28T21:11:55.030Z,8.95
2023-04-28T21:14:22.257Z,8.86
2023-04-28T21:16:49.533Z,8.56
2023-04-28T21:19:17.172Z,8.40
2023-04-28T21:21:43.776Z,8.04
2023-04-28T21:24:10.456Z,7.99
2023-04-28T21:26:37.118Z,8.18
2023-04-28T21:29:03.704Z,8.24
2023-04-28T21:31:30.803Z,8.37
2023-04-28T21:33:57.744Z,8.52
2023-04-28T21:36:24.400Z,8.60
2023-04-28T21:38:51.582Z,8.48
2023-04-28T21:41:18.211Z,8.42
2023-04-28T21:43:44.864Z,8.39
2023-04-28T21:46:11.537Z,8.23
2023-04-28T21:48:38.603Z,8.17
2023-04-28T21:51:05.533Z,7.98
2023-04-28T21:53:32.156Z,7.76
2023-04-28T21:55:58.776Z,7.89
2023-04-28T21:58:25.405Z,7.96
2023-04-28T22:00:52.379Z,7.94
2023-04-28T22:03:19.160Z,7.97
2023-04-28T22:05:46.050Z,8.08
2023-04-28T22:08:17.238Z,8.10
2023-04-28T22:10:45.651Z,8.22
2023-04-28T22:13:12.908Z,8.24
2023-04-28T22:15:39.864Z,8.30
2023-04-28T22:18:07.832Z,8.36
2023-04-28T22:20:34.755Z,8.26
2023-04-28T22:23:01.366Z,8.39
2023-04-28T22:25:27.976Z,8.39
2023-04-28T22:27:54.553Z,8.39
2023-04-28T22:30:22.196Z,8.37
2023-04-28T22:32:49.790Z,8.39
2023-04-28T22:35:16.876Z,8.43
2023-04-28T22:37:43.795Z,8.41
2023-04-28T22:40:11.230Z,8.32
2023-04-28T22:42:39.003Z,8.12
2023-04-28T22:45:06.769Z,7.99
2023-04-28T22:47:34.402Z,7.66
2023-04-28T22:50:01.211Z,7.53
2023-04-28T22:52:27.828Z,7.60
2023-04-28T22:54:54.439Z,7.66
2023-04-28T22:57:21.073Z,7.59
2023-04-28T22:59:47.672Z,7.55
2023-04-28T23:02:14.321Z,7.55
2023-04-28T23:04:41.223Z,7.60
2023-04-28T23:07:07.924Z,7.49
2023-04-28T23:09:36.233Z,7.44
2023-04-28T23:12:06.335Z,7.45
2023-04-28T23:14:33.356Z,7.41
2023-04-28T23:16:59.967Z,7.17
2023-04-28T23:19:26.594Z,7.04
2023-04-28T23:21:54.464Z,6.95
2023-04-28T23:24:21.216Z,6.96
2023-04-28T23:26:47.890Z,7.02
2023-04-28T23:29:14.547Z,7.09
2023-04-28T23:31:41.355Z,7.17
2023-04-28T23:34:08.383Z,7.17
2023-04-28T23:36:35.704Z,7.23
2023-04-28T23:39:02.479Z,7.15
2023-04-28T23:41:29.267Z,7.34
2023-04-28T23:43:55.921Z,7.29
2023-04-28T23:46:22.793Z,7.28
2023-04-28T23:48:49.549Z,7.19
2023-04-28T23:51:16.389Z,7.16
2023-04-28T23:53:43.220Z,7.09
2023-04-28T23:56:09.870Z,7.03
2023-04-28T23:58:36.509Z,7.02
